CPA21 KPAE-PANC
Flight info
| Callsign | CPA21 |
|---|---|
| Flight time | 3h 13m |
| Altitude | 38000 |
| Route | PERLL ARRIE J523 YZP Q801 JOH PTERS3 |
| Aircraft | B748/H-SDE3FGHIM1M2RWXY/LB1 |
Departure
| Time | 2026-04-23 00:05 |
|---|---|
| Airport | Seattle Paine Field International Airport (KPAE) |
Arrival
| Time | 2026-04-23 03:18 |
|---|---|
| Airport | Ted Stevens Anchorage International Airport (PANC) |
| Time | Latitude | Longitude | Altitude | Speed | Heading |
|---|---|---|---|---|---|
| 2026-04-22 23:34 | 47.91530 | -122.28151 | 573 ft | 0 kts | 90° |
| 2026-04-22 23:57 | 47.91530 | -122.28136 | 579 ft | 3 kts | 90° |
| 2026-04-22 23:57 | 47.91532 | -122.28093 | 579 ft | 4 kts | 80° |
| 2026-04-22 23:57 | 47.91544 | -122.28066 | 577 ft | 2 kts | 43° |
| 2026-04-22 23:58 | 47.91574 | -122.28042 | 577 ft | 8 kts | 20° |
| 2026-04-22 23:58 | 47.91641 | -122.28040 | 579 ft | 12 kts | 356° |
| 2026-04-22 23:58 | 47.91745 | -122.28050 | 579 ft | 17 kts | 359° |
| 2026-04-22 23:58 | 47.91878 | -122.28050 | 579 ft | 20 kts | 0° |
| 2026-04-22 23:59 | 47.92022 | -122.28048 | 574 ft | 21 kts | 360° |
| 2026-04-22 23:59 | 47.92171 | -122.28064 | 575 ft | 18 kts | 339° |
| 2026-04-22 23:59 | 47.92205 | -122.28122 | 577 ft | 2 kts | 271° |
| 2026-04-22 23:59 | 47.92201 | -122.28138 | 577 ft | 3 kts | 250° |
| 2026-04-23 00:00 | 47.92187 | -122.28176 | 577 ft | 3 kts | 240° |
| 2026-04-23 00:00 | 47.92173 | -122.28215 | 575 ft | 6 kts | 244° |
| 2026-04-23 00:00 | 47.92165 | -122.28272 | 579 ft | 5 kts | 268° |
| 2026-04-23 00:01 | 47.92163 | -122.28329 | 571 ft | 3 kts | 266° |
| 2026-04-23 00:01 | 47.92161 | -122.28368 | 580 ft | 0 kts | 265° |
| 2026-04-23 00:02 | 47.92161 | -122.28369 | 580 ft | 1 kts | 265° |
| 2026-04-23 00:02 | 47.92160 | -122.28388 | 575 ft | 3 kts | 265° |
| 2026-04-23 00:02 | 47.92157 | -122.28432 | 575 ft | 5 kts | 264° |
| 2026-04-23 00:03 | 47.92152 | -122.28501 | 579 ft | 8 kts | 263° |
| 2026-04-23 00:03 | 47.92137 | -122.28561 | 577 ft | 4 kts | 232° |
| 2026-04-23 00:03 | 47.92113 | -122.28587 | 578 ft | 4 kts | 204° |
| 2026-04-23 00:03 | 47.92092 | -122.28590 | 580 ft | 3 kts | 179° |
| 2026-04-23 00:04 | 47.92060 | -122.28589 | 576 ft | 14 kts | 178° |
| 2026-04-23 00:04 | 47.91814 | -122.28580 | 579 ft | 66 kts | 178° |
| 2026-04-23 00:04 | 47.91116 | -122.28565 | 579 ft | 129 kts | 179° |
| 2026-04-23 00:04 | 47.90048 | -122.28544 | 595 ft | 174 kts | 180° |
| 2026-04-23 00:05 | 47.88817 | -122.28571 | 1141 ft | 173 kts | 184° |
| 2026-04-23 00:05 | 47.87641 | -122.28603 | 2061 ft | 168 kts | 178° |
| 2026-04-23 00:05 | 47.86404 | -122.28459 | 2518 ft | 190 kts | 177° |
| 2026-04-23 00:05 | 47.85091 | -122.28274 | 3216 ft | 197 kts | 177° |
| 2026-04-23 00:06 | 47.83674 | -122.28328 | 3900 ft | 196 kts | 188° |
| 2026-04-23 00:06 | 47.82330 | -122.28774 | 4424 ft | 213 kts | 199° |
| 2026-04-23 00:06 | 47.80895 | -122.29785 | 4740 ft | 232 kts | 215° |
| 2026-04-23 00:06 | 47.79718 | -122.31418 | 5432 ft | 236 kts | 233° |
| 2026-04-23 00:07 | 47.78669 | -122.33345 | 6059 ft | 244 kts | 229° |
| 2026-04-23 00:07 | 47.77369 | -122.35044 | 6628 ft | 253 kts | 220° |
| 2026-04-23 00:07 | 47.75904 | -122.36758 | 6912 ft | 284 kts | 221° |
| 2026-04-23 00:07 | 47.74384 | -122.38663 | 7928 ft | 281 kts | 224° |
| 2026-04-23 00:08 | 47.72939 | -122.40653 | 8856 ft | 291 kts | 227° |
| 2026-04-23 00:08 | 47.71484 | -122.42806 | 9260 ft | 299 kts | 228° |
| 2026-04-23 00:08 | 47.70063 | -122.44792 | 10279 ft | 292 kts | 224° |
| 2026-04-23 00:08 | 47.68528 | -122.46695 | 11401 ft | 292 kts | 224° |
| 2026-04-23 00:09 | 47.66901 | -122.48749 | 11592 ft | 324 kts | 224° |
| 2026-04-23 00:09 | 47.65105 | -122.51030 | 11799 ft | 354 kts | 225° |
| 2026-04-23 00:09 | 47.63204 | -122.53525 | 12324 ft | 370 kts | 225° |
| 2026-04-23 00:09 | 47.61273 | -122.56059 | 13319 ft | 373 kts | 225° |
| 2026-04-23 00:10 | 47.59548 | -122.58913 | 14163 ft | 372 kts | 242° |
| 2026-04-23 00:10 | 47.58782 | -122.61171 | 14697 ft | 369 kts | 254° |
| 2026-04-23 00:10 | 47.58258 | -122.64856 | 15479 ft | 365 kts | 271° |
| 2026-04-23 00:10 | 47.58500 | -122.68571 | 16261 ft | 363 kts | 288° |
| 2026-04-23 00:11 | 47.59464 | -122.72014 | 17023 ft | 363 kts | 301° |
| 2026-04-23 00:11 | 47.60702 | -122.75306 | 17757 ft | 367 kts | 302° |
| 2026-04-23 00:11 | 47.61988 | -122.78601 | 18482 ft | 372 kts | 302° |
| 2026-04-23 00:11 | 47.63282 | -122.81954 | 19106 ft | 376 kts | 301° |
| 2026-04-23 00:12 | 47.64571 | -122.85361 | 19728 ft | 380 kts | 301° |
| 2026-04-23 00:12 | 47.65870 | -122.88795 | 20328 ft | 384 kts | 301° |
| 2026-04-23 00:12 | 47.67194 | -122.92270 | 20892 ft | 389 kts | 302° |
| 2026-04-23 00:12 | 47.68531 | -122.95779 | 21436 ft | 393 kts | 302° |
| 2026-04-23 00:13 | 47.69875 | -122.99329 | 22040 ft | 396 kts | 302° |
| 2026-04-23 00:13 | 47.71216 | -123.02877 | 22581 ft | 401 kts | 302° |
| 2026-04-23 00:13 | 47.72587 | -123.06501 | 23129 ft | 404 kts | 302° |
| 2026-04-23 00:13 | 47.73969 | -123.10156 | 23623 ft | 408 kts | 302° |
| 2026-04-23 00:14 | 47.75362 | -123.13853 | 24073 ft | 411 kts | 301° |
| 2026-04-23 00:14 | 47.76757 | -123.17564 | 24575 ft | 411 kts | 301° |
| 2026-04-23 00:14 | 47.78157 | -123.21284 | 25025 ft | 413 kts | 301° |
| 2026-04-23 00:14 | 47.79562 | -123.25026 | 25496 ft | 415 kts | 300° |
| 2026-04-23 00:15 | 47.80972 | -123.28785 | 25943 ft | 417 kts | 300° |
| 2026-04-23 00:15 | 47.82388 | -123.32568 | 26374 ft | 420 kts | 300° |
| 2026-04-23 00:15 | 47.83794 | -123.36328 | 26875 ft | 420 kts | 300° |
| 2026-04-23 00:15 | 47.85217 | -123.40138 | 27306 ft | 423 kts | 300° |
| 2026-04-23 00:16 | 47.86648 | -123.43976 | 27755 ft | 425 kts | 299° |
| 2026-04-23 00:16 | 47.88087 | -123.47841 | 28181 ft | 428 kts | 299° |
| 2026-04-23 00:16 | 47.89532 | -123.51725 | 28568 ft | 430 kts | 299° |
| 2026-04-23 00:16 | 47.90991 | -123.55643 | 28989 ft | 432 kts | 299° |
| 2026-04-23 00:17 | 47.92454 | -123.59579 | 29374 ft | 435 kts | 299° |
| 2026-04-23 00:17 | 47.93924 | -123.63545 | 29768 ft | 438 kts | 299° |
| 2026-04-23 00:17 | 47.95400 | -123.67530 | 30153 ft | 441 kts | 299° |
| 2026-04-23 00:17 | 47.96884 | -123.71542 | 30496 ft | 443 kts | 299° |
| 2026-04-23 00:18 | 47.98373 | -123.75577 | 30793 ft | 445 kts | 299° |
| 2026-04-23 00:18 | 47.99868 | -123.79632 | 31113 ft | 447 kts | 299° |
| 2026-04-23 00:18 | 48.01370 | -123.83713 | 31428 ft | 449 kts | 299° |
| 2026-04-23 00:18 | 48.02877 | -123.87812 | 31708 ft | 451 kts | 299° |
| 2026-04-23 00:19 | 48.04387 | -123.91929 | 32016 ft | 453 kts | 298° |
| 2026-04-23 00:19 | 48.05904 | -123.96069 | 32303 ft | 455 kts | 298° |
| 2026-04-23 00:19 | 48.07426 | -124.00228 | 32581 ft | 457 kts | 298° |
| 2026-04-23 00:19 | 48.08952 | -124.04407 | 32880 ft | 458 kts | 298° |
| 2026-04-23 00:20 | 48.10484 | -124.08610 | 33132 ft | 461 kts | 298° |
| 2026-04-23 00:20 | 48.12017 | -124.12819 | 33552 ft | 459 kts | 298° |
| 2026-04-23 00:20 | 48.13540 | -124.17010 | 33953 ft | 458 kts | 298° |
| 2026-04-23 00:20 | 48.15062 | -124.21203 | 34286 ft | 458 kts | 298° |
| 2026-04-23 00:21 | 48.16580 | -124.25393 | 34551 ft | 458 kts | 298° |
| 2026-04-23 00:21 | 48.18100 | -124.29594 | 34799 ft | 459 kts | 298° |
| 2026-04-23 00:21 | 48.19621 | -124.33808 | 35060 ft | 460 kts | 298° |
| 2026-04-23 00:21 | 48.21143 | -124.38027 | 35315 ft | 461 kts | 298° |
| 2026-04-23 00:22 | 48.22657 | -124.42234 | 35585 ft | 461 kts | 298° |
| 2026-04-23 00:22 | 48.24191 | -124.46502 | 35864 ft | 462 kts | 298° |
| 2026-04-23 00:22 | 48.25712 | -124.50739 | 36150 ft | 462 kts | 298° |
| 2026-04-23 00:22 | 48.27233 | -124.54987 | 36422 ft | 462 kts | 298° |
| 2026-04-23 00:23 | 48.28810 | -124.59200 | 36682 ft | 462 kts | 305° |
| 2026-04-23 00:23 | 48.30802 | -124.62977 | 36965 ft | 462 kts | 314° |
| 2026-04-23 00:23 | 48.33206 | -124.66167 | 37248 ft | 463 kts | 323° |
| 2026-04-23 00:23 | 48.35817 | -124.69016 | 37491 ft | 463 kts | 323° |
| 2026-04-23 00:24 | 48.38402 | -124.71815 | 37777 ft | 463 kts | 323° |
| 2026-04-23 00:24 | 48.41020 | -124.74642 | 38068 ft | 463 kts | 323° |
| 2026-04-23 00:24 | 48.43635 | -124.77484 | 38321 ft | 463 kts | 323° |
| 2026-04-23 00:24 | 48.46247 | -124.80334 | 38575 ft | 463 kts | 323° |
| 2026-04-23 00:25 | 48.48854 | -124.83176 | 38814 ft | 463 kts | 323° |
| 2026-04-23 00:25 | 48.51467 | -124.86023 | 39021 ft | 463 kts | 323° |
| 2026-04-23 00:25 | 48.54076 | -124.88872 | 39208 ft | 463 kts | 323° |
| 2026-04-23 00:25 | 48.56683 | -124.91726 | 39395 ft | 463 kts | 323° |
| 2026-04-23 00:26 | 48.59294 | -124.94586 | 39568 ft | 464 kts | 323° |
| 2026-04-23 00:26 | 48.61900 | -124.97444 | 39746 ft | 464 kts | 323° |
| 2026-04-23 00:26 | 48.64515 | -125.00314 | 39925 ft | 463 kts | 323° |
| 2026-04-23 00:26 | 48.67118 | -125.03178 | 40107 ft | 464 kts | 322° |
| 2026-04-23 00:27 | 48.69743 | -125.06068 | 40086 ft | 466 kts | 322° |
| 2026-04-23 00:27 | 48.74966 | -125.11829 | 40085 ft | 463 kts | 322° |
| 2026-04-23 00:28 | 48.80161 | -125.17577 | 40077 ft | 462 kts | 322° |
| 2026-04-23 00:28 | 48.85353 | -125.23335 | 40079 ft | 462 kts | 322° |
| 2026-04-23 00:29 | 48.90540 | -125.29102 | 40078 ft | 462 kts | 322° |
| 2026-04-23 00:29 | 48.95720 | -125.34877 | 40071 ft | 461 kts | 322° |
| 2026-04-23 00:30 | 49.00894 | -125.40661 | 40066 ft | 461 kts | 322° |
| 2026-04-23 00:30 | 49.06076 | -125.46469 | 40076 ft | 462 kts | 322° |
| 2026-04-23 00:31 | 49.11259 | -125.52289 | 40071 ft | 462 kts | 322° |
| 2026-04-23 00:31 | 49.16435 | -125.58118 | 40075 ft | 462 kts | 322° |
| 2026-04-23 00:32 | 49.21602 | -125.63954 | 40073 ft | 462 kts | 322° |
| 2026-04-23 00:32 | 49.26773 | -125.69807 | 40076 ft | 461 kts | 322° |
| 2026-04-23 00:33 | 49.31888 | -125.75614 | 40071 ft | 460 kts | 322° |
| 2026-04-23 00:33 | 49.37025 | -125.81461 | 40060 ft | 459 kts | 322° |
| 2026-04-23 00:34 | 49.42153 | -125.87313 | 40050 ft | 459 kts | 322° |
| 2026-04-23 00:34 | 49.47282 | -125.93183 | 40049 ft | 460 kts | 322° |
| 2026-04-23 00:35 | 49.52415 | -125.99071 | 40039 ft | 460 kts | 322° |
| 2026-04-23 00:35 | 49.57510 | -126.04933 | 40038 ft | 460 kts | 322° |
| 2026-04-23 00:36 | 49.62632 | -126.10841 | 40037 ft | 459 kts | 322° |
| 2026-04-23 00:36 | 49.67748 | -126.16758 | 40033 ft | 460 kts | 322° |
| 2026-04-23 00:37 | 49.72874 | -126.22703 | 40036 ft | 461 kts | 322° |
| 2026-04-23 00:37 | 49.78032 | -126.28701 | 40039 ft | 461 kts | 321° |
| 2026-04-23 00:38 | 49.83127 | -126.34642 | 40043 ft | 462 kts | 321° |
| 2026-04-23 00:38 | 49.88292 | -126.40682 | 40055 ft | 462 kts | 321° |
| 2026-04-23 00:39 | 49.93392 | -126.46660 | 40058 ft | 462 kts | 321° |
| 2026-04-23 00:39 | 49.98524 | -126.52694 | 40072 ft | 462 kts | 321° |
| 2026-04-23 00:40 | 50.03639 | -126.58724 | 40081 ft | 462 kts | 321° |
| 2026-04-23 00:40 | 50.08751 | -126.64766 | 40092 ft | 461 kts | 321° |
| 2026-04-23 00:41 | 50.13850 | -126.70810 | 40104 ft | 459 kts | 321° |
| 2026-04-23 00:41 | 50.18932 | -126.76851 | 40119 ft | 459 kts | 321° |
| 2026-04-23 00:42 | 50.23997 | -126.82887 | 40133 ft | 458 kts | 322° |
| 2026-04-23 00:42 | 50.29054 | -126.88931 | 40143 ft | 456 kts | 322° |
| 2026-04-23 00:43 | 50.34057 | -126.94927 | 40154 ft | 455 kts | 322° |
| 2026-04-23 00:43 | 50.39082 | -127.00966 | 40160 ft | 454 kts | 322° |
| 2026-04-23 00:44 | 50.44090 | -127.07000 | 40176 ft | 455 kts | 322° |
| 2026-04-23 00:44 | 50.49112 | -127.13068 | 40182 ft | 455 kts | 322° |
| 2026-04-23 00:45 | 50.50684 | -127.14972 | 40183 ft | 455 kts | 321° |
| 2026-04-23 00:58 | 50.52360 | -127.17001 | 40184 ft | 449 kts | 322° |
| 2026-04-23 00:58 | 50.54852 | -127.20024 | 39088 ft | 461 kts | 322° |
| 2026-04-23 00:59 | 50.57447 | -127.23178 | 37907 ft | 475 kts | 322° |
| 2026-04-23 00:59 | 50.60061 | -127.26358 | 37313 ft | 474 kts | 322° |
| 2026-04-23 00:59 | 50.62672 | -127.29537 | 36631 ft | 474 kts | 322° |
| 2026-04-23 00:59 | 50.65273 | -127.32709 | 36203 ft | 469 kts | 322° |
| 2026-04-23 01:00 | 50.67818 | -127.35829 | 36185 ft | 457 kts | 320° |
| 2026-04-23 01:00 | 50.72370 | -127.42798 | 36184 ft | 464 kts | 315° |
| 2026-04-23 01:01 | 50.76957 | -127.50097 | 36200 ft | 473 kts | 315° |
| 2026-04-23 01:01 | 50.81527 | -127.57377 | 36203 ft | 474 kts | 315° |
| 2026-04-23 01:02 | 50.86161 | -127.64788 | 36195 ft | 472 kts | 315° |
| 2026-04-23 01:02 | 50.90760 | -127.72162 | 36195 ft | 471 kts | 315° |
| 2026-04-23 01:03 | 50.95375 | -127.79585 | 36194 ft | 471 kts | 315° |
| 2026-04-23 01:03 | 50.99970 | -127.86998 | 36200 ft | 471 kts | 316° |
| 2026-04-23 01:04 | 51.04558 | -127.94421 | 36201 ft | 471 kts | 316° |
| 2026-04-23 01:04 | 51.11436 | -128.05593 | 36201 ft | 471 kts | 316° |
| 2026-04-23 01:05 | 51.16008 | -128.13047 | 36216 ft | 470 kts | 316° |
| 2026-04-23 01:05 | 51.20572 | -128.20509 | 36223 ft | 470 kts | 316° |
| 2026-04-23 01:06 | 51.25128 | -128.27981 | 36237 ft | 470 kts | 316° |
| 2026-04-23 01:06 | 51.29676 | -128.35464 | 36240 ft | 470 kts | 316° |
| 2026-04-23 01:07 | 51.34209 | -128.42944 | 36246 ft | 471 kts | 316° |
| 2026-04-23 01:07 | 51.38762 | -128.50480 | 36243 ft | 471 kts | 316° |
| 2026-04-23 01:08 | 51.43309 | -128.58029 | 36239 ft | 471 kts | 316° |
| 2026-04-23 01:08 | 51.47847 | -128.65588 | 36250 ft | 470 kts | 316° |
| 2026-04-23 01:09 | 51.52386 | -128.73168 | 36241 ft | 471 kts | 316° |
| 2026-04-23 01:09 | 51.56922 | -128.80768 | 36248 ft | 471 kts | 316° |
| 2026-04-23 01:10 | 51.61451 | -128.88379 | 36246 ft | 471 kts | 316° |
| 2026-04-23 01:10 | 51.65975 | -128.96008 | 36253 ft | 471 kts | 316° |
| 2026-04-23 01:11 | 51.70491 | -129.03644 | 36262 ft | 471 kts | 316° |
| 2026-04-23 01:11 | 51.74998 | -129.11289 | 36258 ft | 470 kts | 316° |
| 2026-04-23 01:12 | 51.79502 | -129.18956 | 36271 ft | 470 kts | 316° |
| 2026-04-23 01:12 | 51.84001 | -129.26633 | 36263 ft | 470 kts | 316° |
| 2026-04-23 01:13 | 51.88455 | -129.34260 | 36269 ft | 469 kts | 316° |
| 2026-04-23 01:13 | 51.92929 | -129.41943 | 36272 ft | 469 kts | 316° |
| 2026-04-23 01:14 | 51.97401 | -129.49649 | 36274 ft | 469 kts | 316° |
| 2026-04-23 01:14 | 52.01872 | -129.57376 | 36277 ft | 469 kts | 316° |
| 2026-04-23 01:15 | 52.06331 | -129.65107 | 36289 ft | 469 kts | 316° |
| 2026-04-23 01:15 | 52.10793 | -129.72867 | 36295 ft | 469 kts | 316° |
| 2026-04-23 01:16 | 52.15245 | -129.80634 | 36291 ft | 469 kts | 316° |
| 2026-04-23 01:16 | 52.19680 | -129.88395 | 36302 ft | 468 kts | 316° |
| 2026-04-23 01:17 | 52.24115 | -129.96182 | 36304 ft | 468 kts | 316° |
| 2026-04-23 01:17 | 52.28542 | -130.03978 | 36309 ft | 468 kts | 316° |
| 2026-04-23 01:18 | 52.32968 | -130.11799 | 36310 ft | 469 kts | 316° |
| 2026-04-23 01:18 | 52.37391 | -130.19637 | 36314 ft | 469 kts | 315° |
| 2026-04-23 01:19 | 52.41800 | -130.27477 | 36327 ft | 468 kts | 315° |
| 2026-04-23 01:19 | 52.46210 | -130.35342 | 36320 ft | 468 kts | 315° |
| 2026-04-23 01:20 | 52.50582 | -130.43166 | 36329 ft | 468 kts | 315° |
| 2026-04-23 01:20 | 52.54976 | -130.51052 | 36331 ft | 468 kts | 315° |
| 2026-04-23 01:21 | 52.59361 | -130.58949 | 36339 ft | 468 kts | 315° |
| 2026-04-23 01:21 | 52.63743 | -130.66866 | 36344 ft | 467 kts | 315° |
| 2026-04-23 01:22 | 52.68117 | -130.74792 | 36343 ft | 467 kts | 315° |
| 2026-04-23 01:22 | 52.72481 | -130.82727 | 36351 ft | 467 kts | 315° |
| 2026-04-23 01:23 | 52.76845 | -130.90687 | 36353 ft | 467 kts | 315° |
| 2026-04-23 01:23 | 52.81201 | -130.98659 | 36354 ft | 467 kts | 315° |
| 2026-04-23 01:24 | 52.85555 | -131.06651 | 36359 ft | 467 kts | 315° |
| 2026-04-23 01:24 | 52.89894 | -131.14644 | 36364 ft | 467 kts | 315° |
| 2026-04-23 01:25 | 52.94239 | -131.22672 | 36368 ft | 468 kts | 315° |
| 2026-04-23 01:25 | 52.98555 | -131.30674 | 36372 ft | 469 kts | 315° |
| 2026-04-23 01:26 | 53.02901 | -131.38757 | 36371 ft | 469 kts | 314° |
| 2026-04-23 01:26 | 53.07243 | -131.46858 | 36368 ft | 470 kts | 314° |
| 2026-04-23 01:27 | 53.11587 | -131.54990 | 36364 ft | 470 kts | 314° |
| 2026-04-23 01:27 | 53.15936 | -131.63159 | 36358 ft | 471 kts | 314° |
| 2026-04-23 01:28 | 53.20282 | -131.71349 | 36354 ft | 472 kts | 314° |
| 2026-04-23 01:28 | 53.24743 | -131.79362 | 36378 ft | 469 kts | 322° |
| 2026-04-23 01:29 | 53.30165 | -131.85313 | 36352 ft | 467 kts | 332° |
| 2026-04-23 01:29 | 53.35822 | -131.90635 | 36371 ft | 466 kts | 332° |
| 2026-04-23 01:30 | 53.41460 | -131.95936 | 36380 ft | 467 kts | 332° |
| 2026-04-23 01:30 | 53.47113 | -132.01278 | 36392 ft | 466 kts | 332° |
| 2026-04-23 01:31 | 53.52766 | -132.06632 | 36406 ft | 466 kts | 332° |
| 2026-04-23 01:31 | 53.58413 | -132.11999 | 36419 ft | 466 kts | 332° |
| 2026-04-23 01:32 | 53.64048 | -132.17369 | 36423 ft | 466 kts | 332° |
| 2026-04-23 01:32 | 53.69697 | -132.22771 | 36427 ft | 466 kts | 332° |
| 2026-04-23 01:33 | 53.75326 | -132.28169 | 36433 ft | 465 kts | 332° |
| 2026-04-23 01:33 | 53.80960 | -132.33589 | 36428 ft | 465 kts | 332° |
| 2026-04-23 01:34 | 53.86588 | -132.39021 | 36432 ft | 466 kts | 332° |
| 2026-04-23 01:34 | 53.92213 | -132.44467 | 36428 ft | 465 kts | 332° |
| 2026-04-23 01:35 | 53.97843 | -132.49935 | 36429 ft | 466 kts | 332° |
| 2026-04-23 01:35 | 54.03464 | -132.55410 | 36427 ft | 466 kts | 331° |
| 2026-04-23 01:36 | 54.09092 | -132.60911 | 36439 ft | 466 kts | 331° |
| 2026-04-23 01:36 | 54.14707 | -132.66416 | 36447 ft | 466 kts | 331° |
| 2026-04-23 01:37 | 54.20325 | -132.71941 | 36451 ft | 466 kts | 331° |
| 2026-04-23 01:37 | 54.25943 | -132.77484 | 36454 ft | 466 kts | 331° |
| 2026-04-23 01:38 | 54.31553 | -132.83037 | 36453 ft | 466 kts | 331° |
| 2026-04-23 01:38 | 54.36214 | -132.87664 | 36447 ft | 465 kts | 331° |
| 2026-04-23 01:39 | 54.42734 | -132.94156 | 36452 ft | 465 kts | 331° |
| 2026-04-23 01:39 | 54.48328 | -132.99746 | 36450 ft | 465 kts | 331° |
| 2026-04-23 01:40 | 54.52985 | -133.04412 | 36451 ft | 465 kts | 331° |
| 2026-04-23 01:40 | 54.58539 | -133.10118 | 36461 ft | 465 kts | 325° |
| 2026-04-23 01:41 | 54.63656 | -133.16990 | 36456 ft | 466 kts | 323° |
| 2026-04-23 01:41 | 54.68747 | -133.23915 | 36453 ft | 466 kts | 323° |
| 2026-04-23 01:42 | 54.73832 | -133.30858 | 36444 ft | 465 kts | 323° |
| 2026-04-23 01:42 | 54.78909 | -133.37811 | 36447 ft | 465 kts | 323° |
| 2026-04-23 01:43 | 54.83984 | -133.44786 | 36447 ft | 465 kts | 323° |
| 2026-04-23 01:43 | 54.89057 | -133.51780 | 36444 ft | 466 kts | 323° |
| 2026-04-23 01:44 | 54.94128 | -133.58795 | 36442 ft | 466 kts | 323° |
| 2026-04-23 01:44 | 54.99198 | -133.65832 | 36442 ft | 466 kts | 323° |
| 2026-04-23 01:45 | 55.04273 | -133.72899 | 36440 ft | 466 kts | 323° |
| 2026-04-23 01:45 | 55.09336 | -133.79974 | 36443 ft | 466 kts | 323° |
| 2026-04-23 01:46 | 55.14396 | -133.87066 | 36448 ft | 466 kts | 322° |
| 2026-04-23 01:46 | 55.19416 | -133.94129 | 36443 ft | 466 kts | 322° |
| 2026-04-23 01:47 | 55.24471 | -134.01262 | 36443 ft | 467 kts | 322° |
| 2026-04-23 01:47 | 55.29522 | -134.08414 | 36443 ft | 467 kts | 322° |
| 2026-04-23 01:48 | 55.34575 | -134.15595 | 36450 ft | 467 kts | 322° |
| 2026-04-23 01:48 | 55.39627 | -134.22797 | 36455 ft | 467 kts | 322° |
| 2026-04-23 01:49 | 55.44676 | -134.30020 | 36454 ft | 468 kts | 322° |
| 2026-04-23 01:49 | 55.49721 | -134.37262 | 36457 ft | 468 kts | 322° |
| 2026-04-23 01:50 | 55.54727 | -134.44472 | 36449 ft | 467 kts | 322° |
| 2026-04-23 01:50 | 55.59758 | -134.51742 | 36450 ft | 467 kts | 322° |
| 2026-04-23 01:51 | 55.64789 | -134.59039 | 36455 ft | 467 kts | 322° |
| 2026-04-23 01:51 | 55.69811 | -134.66346 | 36455 ft | 467 kts | 322° |
| 2026-04-23 01:52 | 55.74828 | -134.73672 | 36456 ft | 467 kts | 322° |
| 2026-04-23 01:52 | 55.79836 | -134.81009 | 36452 ft | 466 kts | 322° |
| 2026-04-23 01:53 | 55.84803 | -134.88312 | 36459 ft | 466 kts | 321° |
| 2026-04-23 01:53 | 55.89792 | -134.95672 | 36457 ft | 466 kts | 321° |
| 2026-04-23 01:54 | 55.94778 | -135.03053 | 36454 ft | 466 kts | 321° |
| 2026-04-23 01:54 | 55.99753 | -135.10444 | 36454 ft | 465 kts | 321° |
| 2026-04-23 01:55 | 56.04725 | -135.17855 | 36462 ft | 465 kts | 321° |
| 2026-04-23 01:55 | 56.09693 | -135.25287 | 36462 ft | 465 kts | 321° |
| 2026-04-23 01:56 | 56.14653 | -135.32733 | 36463 ft | 465 kts | 321° |
| 2026-04-23 01:56 | 56.19609 | -135.40198 | 36464 ft | 465 kts | 321° |
| 2026-04-23 01:57 | 56.24559 | -135.47681 | 36466 ft | 465 kts | 321° |
| 2026-04-23 01:57 | 56.29496 | -135.55170 | 36465 ft | 465 kts | 321° |
| 2026-04-23 01:58 | 56.34438 | -135.62691 | 36463 ft | 465 kts | 321° |
| 2026-04-23 01:58 | 56.39342 | -135.70183 | 36461 ft | 465 kts | 320° |
| 2026-04-23 01:59 | 56.44269 | -135.77735 | 36460 ft | 465 kts | 320° |
| 2026-04-23 01:59 | 56.49208 | -135.85333 | 36458 ft | 466 kts | 320° |
| 2026-04-23 02:00 | 56.54137 | -135.92943 | 36456 ft | 466 kts | 320° |
| 2026-04-23 02:00 | 56.59062 | -136.00573 | 36453 ft | 465 kts | 320° |
| 2026-04-23 02:01 | 56.63967 | -136.08199 | 36458 ft | 464 kts | 320° |
| 2026-04-23 02:01 | 56.68873 | -136.15854 | 36459 ft | 464 kts | 320° |
| 2026-04-23 02:02 | 56.73775 | -136.23531 | 36464 ft | 464 kts | 320° |
| 2026-04-23 02:02 | 56.78670 | -136.31223 | 36461 ft | 464 kts | 320° |
| 2026-04-23 02:03 | 56.83564 | -136.38942 | 36456 ft | 464 kts | 319° |
| 2026-04-23 02:03 | 56.88448 | -136.46672 | 36460 ft | 465 kts | 319° |
| 2026-04-23 02:04 | 56.93308 | -136.54392 | 36461 ft | 465 kts | 319° |
| 2026-04-23 02:04 | 56.98196 | -136.62185 | 36457 ft | 466 kts | 319° |
| 2026-04-23 02:05 | 57.03081 | -136.70000 | 36464 ft | 466 kts | 319° |
| 2026-04-23 02:05 | 57.07959 | -136.77833 | 36472 ft | 465 kts | 319° |
| 2026-04-23 02:06 | 57.12839 | -136.85700 | 36808 ft | 462 kts | 319° |
| 2026-04-23 02:06 | 57.15240 | -136.89579 | 37083 ft | 463 kts | 319° |
| 2026-04-23 02:06 | 57.17670 | -136.93512 | 37083 ft | 463 kts | 319° |
| 2026-04-23 02:07 | 57.20062 | -136.97393 | 37755 ft | 455 kts | 319° |
| 2026-04-23 02:07 | 57.22438 | -137.01253 | 38000 ft | 455 kts | 319° |
| 2026-04-23 02:07 | 57.24808 | -137.05111 | 38240 ft | 455 kts | 319° |
| 2026-04-23 02:07 | 57.27186 | -137.08988 | 38504 ft | 454 kts | 319° |
| 2026-04-23 02:08 | 57.29553 | -137.12856 | 38745 ft | 453 kts | 319° |
| 2026-04-23 02:08 | 57.31915 | -137.16721 | 38967 ft | 453 kts | 319° |
| 2026-04-23 02:08 | 57.34242 | -137.20536 | 39158 ft | 453 kts | 319° |
| 2026-04-23 02:08 | 57.36636 | -137.24467 | 39291 ft | 454 kts | 318° |
| 2026-04-23 02:09 | 57.38997 | -137.28351 | 39430 ft | 454 kts | 318° |
| 2026-04-23 02:09 | 57.41329 | -137.32196 | 39565 ft | 455 kts | 318° |
| 2026-04-23 02:09 | 57.43690 | -137.36094 | 39704 ft | 455 kts | 318° |
| 2026-04-23 02:09 | 57.46092 | -137.40066 | 39848 ft | 456 kts | 318° |
| 2026-04-23 02:10 | 57.48427 | -137.43937 | 39977 ft | 456 kts | 318° |
| 2026-04-23 02:10 | 57.50796 | -137.47870 | 40115 ft | 457 kts | 318° |
| 2026-04-23 02:10 | 57.53168 | -137.51815 | 40259 ft | 457 kts | 318° |
| 2026-04-23 02:10 | 57.55536 | -137.55760 | 40414 ft | 458 kts | 318° |
| 2026-04-23 02:11 | 57.60296 | -137.63714 | 40446 ft | 460 kts | 318° |
| 2026-04-23 02:11 | 57.65048 | -137.71683 | 40443 ft | 458 kts | 317° |
| 2026-04-23 02:12 | 57.69791 | -137.79665 | 40443 ft | 458 kts | 317° |
| 2026-04-23 02:12 | 57.74231 | -137.88146 | 40464 ft | 457 kts | 309° |
| 2026-04-23 02:13 | 57.78184 | -137.97501 | 40461 ft | 457 kts | 308° |
| 2026-04-23 02:13 | 57.82133 | -138.06870 | 40457 ft | 457 kts | 308° |
| 2026-04-23 02:14 | 57.86067 | -138.16241 | 40455 ft | 457 kts | 308° |
| 2026-04-23 02:14 | 57.89975 | -138.25592 | 40461 ft | 458 kts | 308° |
| 2026-04-23 02:15 | 57.95866 | -138.39752 | 40459 ft | 458 kts | 308° |
| 2026-04-23 02:16 | 57.99786 | -138.49220 | 40462 ft | 458 kts | 308° |
| 2026-04-23 02:16 | 58.03700 | -138.58714 | 40461 ft | 459 kts | 308° |
| 2026-04-23 02:17 | 58.07609 | -138.68234 | 40456 ft | 459 kts | 308° |
| 2026-04-23 02:17 | 58.11513 | -138.77780 | 40458 ft | 458 kts | 308° |
| 2026-04-23 02:18 | 58.15406 | -138.87336 | 40452 ft | 457 kts | 307° |
| 2026-04-23 02:18 | 58.19284 | -138.96894 | 40454 ft | 460 kts | 307° |
| 2026-04-23 02:19 | 58.23208 | -139.06604 | 40454 ft | 467 kts | 307° |
| 2026-04-23 02:19 | 58.27162 | -139.16430 | 40456 ft | 469 kts | 307° |
| 2026-04-23 02:20 | 58.31117 | -139.26299 | 40459 ft | 470 kts | 307° |
| 2026-04-23 02:20 | 58.35070 | -139.36201 | 40452 ft | 470 kts | 307° |
| 2026-04-23 02:21 | 58.39010 | -139.46119 | 40452 ft | 470 kts | 307° |
| 2026-04-23 02:21 | 58.42947 | -139.56065 | 40452 ft | 470 kts | 307° |
| 2026-04-23 02:22 | 58.46875 | -139.66031 | 40450 ft | 470 kts | 307° |
| 2026-04-23 02:22 | 58.50783 | -139.75988 | 40449 ft | 471 kts | 307° |
| 2026-04-23 02:23 | 58.54708 | -139.86032 | 40450 ft | 471 kts | 307° |
| 2026-04-23 02:23 | 58.58625 | -139.96098 | 40447 ft | 471 kts | 306° |
| 2026-04-23 02:24 | 58.61871 | -140.04473 | 40446 ft | 470 kts | 306° |
| 2026-04-23 02:24 | 58.65768 | -140.14563 | 40447 ft | 470 kts | 306° |
| 2026-04-23 02:25 | 58.69658 | -140.24682 | 40444 ft | 471 kts | 306° |
| 2026-04-23 02:25 | 58.73546 | -140.34835 | 40447 ft | 471 kts | 306° |
| 2026-04-23 02:26 | 58.77424 | -140.45008 | 40444 ft | 471 kts | 306° |
| 2026-04-23 02:26 | 58.81195 | -140.55359 | 40462 ft | 471 kts | 301° |
| 2026-04-23 02:27 | 58.84581 | -140.66221 | 40444 ft | 473 kts | 301° |
| 2026-04-23 02:27 | 58.87955 | -140.77053 | 40442 ft | 473 kts | 301° |
| 2026-04-23 02:28 | 58.91329 | -140.87959 | 40439 ft | 472 kts | 301° |
| 2026-04-23 02:28 | 58.94699 | -140.98890 | 40439 ft | 473 kts | 300° |
| 2026-04-23 02:29 | 58.98063 | -141.09859 | 40436 ft | 473 kts | 300° |
| 2026-04-23 02:29 | 59.01422 | -141.20860 | 40440 ft | 474 kts | 300° |
| 2026-04-23 02:30 | 59.04776 | -141.31899 | 40439 ft | 474 kts | 300° |
| 2026-04-23 02:30 | 59.08122 | -141.42964 | 40435 ft | 475 kts | 300° |
| 2026-04-23 02:31 | 59.11458 | -141.54051 | 40435 ft | 475 kts | 300° |
| 2026-04-23 02:31 | 59.14768 | -141.65101 | 40437 ft | 475 kts | 300° |
| 2026-04-23 02:32 | 59.18097 | -141.76268 | 40430 ft | 476 kts | 299° |
| 2026-04-23 02:32 | 59.21415 | -141.87454 | 40427 ft | 476 kts | 299° |
| 2026-04-23 02:33 | 59.24723 | -141.98659 | 40435 ft | 476 kts | 299° |
| 2026-04-23 02:33 | 59.28020 | -142.09881 | 40430 ft | 476 kts | 299° |
| 2026-04-23 02:34 | 59.31307 | -142.21122 | 40423 ft | 476 kts | 299° |
| 2026-04-23 02:34 | 59.34584 | -142.32386 | 40425 ft | 475 kts | 298° |
| 2026-04-23 02:35 | 59.37849 | -142.43665 | 40421 ft | 476 kts | 298° |
| 2026-04-23 02:35 | 59.41087 | -142.54901 | 40423 ft | 476 kts | 298° |
| 2026-04-23 02:36 | 59.44337 | -142.66240 | 40421 ft | 476 kts | 298° |
| 2026-04-23 02:36 | 59.47575 | -142.77591 | 40423 ft | 476 kts | 298° |
| 2026-04-23 02:37 | 59.50805 | -142.88971 | 40418 ft | 476 kts | 298° |
| 2026-04-23 02:37 | 59.54029 | -143.00385 | 40416 ft | 477 kts | 298° |
| 2026-04-23 02:38 | 59.57241 | -143.11812 | 40398 ft | 477 kts | 297° |
| 2026-04-23 02:38 | 59.60442 | -143.23258 | 40400 ft | 476 kts | 297° |
| 2026-04-23 02:39 | 59.63636 | -143.34739 | 40399 ft | 476 kts | 297° |
| 2026-04-23 02:39 | 59.66817 | -143.46229 | 40401 ft | 476 kts | 297° |
| 2026-04-23 02:40 | 59.70004 | -143.57766 | 40403 ft | 477 kts | 297° |
| 2026-04-23 02:40 | 59.73169 | -143.69232 | 40402 ft | 477 kts | 297° |
| 2026-04-23 02:41 | 59.76333 | -143.80789 | 40405 ft | 477 kts | 297° |
| 2026-04-23 02:41 | 59.79495 | -143.92372 | 40400 ft | 477 kts | 296° |
| 2026-04-23 02:42 | 59.82642 | -144.03973 | 40400 ft | 477 kts | 296° |
| 2026-04-23 02:42 | 59.85781 | -144.15599 | 40398 ft | 477 kts | 296° |
| 2026-04-23 02:43 | 59.88914 | -144.27266 | 40397 ft | 478 kts | 296° |
| 2026-04-23 02:43 | 59.92041 | -144.38970 | 40393 ft | 478 kts | 296° |
| 2026-04-23 02:44 | 59.95134 | -144.50604 | 40387 ft | 478 kts | 296° |
| 2026-04-23 02:44 | 59.98239 | -144.62349 | 40386 ft | 478 kts | 295° |
| 2026-04-23 02:45 | 60.01340 | -144.74139 | 40385 ft | 479 kts | 295° |
| 2026-04-23 02:45 | 60.04426 | -144.85932 | 40382 ft | 479 kts | 295° |
| 2026-04-23 02:46 | 60.07505 | -144.97762 | 40381 ft | 479 kts | 295° |
| 2026-04-23 02:46 | 60.10572 | -145.09607 | 40383 ft | 478 kts | 295° |
| 2026-04-23 02:47 | 60.13627 | -145.21470 | 40380 ft | 479 kts | 295° |
| 2026-04-23 02:47 | 60.16677 | -145.33377 | 40382 ft | 479 kts | 294° |
| 2026-04-23 02:48 | 60.19692 | -145.45211 | 40378 ft | 479 kts | 294° |
| 2026-04-23 02:48 | 60.22721 | -145.57164 | 40380 ft | 480 kts | 294° |
| 2026-04-23 02:49 | 60.25744 | -145.69156 | 40372 ft | 480 kts | 294° |
| 2026-04-23 02:49 | 60.28753 | -145.81161 | 40374 ft | 479 kts | 294° |
| 2026-04-23 02:50 | 60.31750 | -145.93178 | 40373 ft | 480 kts | 294° |
| 2026-04-23 02:50 | 60.34761 | -146.05325 | 40379 ft | 481 kts | 293° |
| 2026-04-23 02:51 | 60.37752 | -146.17451 | 40375 ft | 483 kts | 293° |
| 2026-04-23 02:51 | 60.40735 | -146.29617 | 40374 ft | 483 kts | 293° |
| 2026-04-23 02:52 | 60.43696 | -146.41759 | 40373 ft | 484 kts | 293° |
| 2026-04-23 02:52 | 60.46684 | -146.54079 | 40370 ft | 485 kts | 293° |
| 2026-04-23 02:53 | 60.49206 | -146.66572 | 40363 ft | 481 kts | 285° |
| 2026-04-23 02:53 | 60.51336 | -146.79501 | 40367 ft | 482 kts | 285° |
| 2026-04-23 02:54 | 60.53461 | -146.92419 | 40352 ft | 479 kts | 285° |
| 2026-04-23 02:54 | 60.54502 | -146.98784 | 40073 ft | 472 kts | 285° |
| 2026-04-23 02:54 | 60.55529 | -147.05115 | 39544 ft | 472 kts | 284° |
| 2026-04-23 02:54 | 60.56555 | -147.11455 | 39048 ft | 471 kts | 284° |
| 2026-04-23 02:55 | 60.57577 | -147.17773 | 38428 ft | 470 kts | 284° |
| 2026-04-23 02:55 | 60.58596 | -147.24097 | 37773 ft | 470 kts | 284° |
| 2026-04-23 02:55 | 60.59611 | -147.30427 | 37138 ft | 470 kts | 283° |
| 2026-04-23 02:55 | 60.60622 | -147.36763 | 36486 ft | 470 kts | 283° |
| 2026-04-23 02:56 | 60.61613 | -147.42970 | 36093 ft | 458 kts | 283° |
| 2026-04-23 02:56 | 60.62592 | -147.49113 | 34726 ft | 457 kts | 282° |
| 2026-04-23 02:56 | 60.63562 | -147.55283 | 33074 ft | 457 kts | 282° |
| 2026-04-23 02:56 | 60.64532 | -147.61478 | 31299 ft | 460 kts | 283° |
| 2026-04-23 02:57 | 60.65492 | -147.67540 | 30260 ft | 443 kts | 283° |
| 2026-04-23 02:57 | 60.66428 | -147.73507 | 29120 ft | 437 kts | 283° |
| 2026-04-23 02:57 | 60.67335 | -147.79349 | 28564 ft | 431 kts | 283° |
| 2026-04-23 02:57 | 60.68235 | -147.85151 | 27958 ft | 426 kts | 283° |
| 2026-04-23 02:58 | 60.69126 | -147.90895 | 27349 ft | 424 kts | 283° |
| 2026-04-23 02:58 | 60.70011 | -147.96619 | 26735 ft | 422 kts | 283° |
| 2026-04-23 02:58 | 60.70888 | -148.02324 | 26135 ft | 421 kts | 283° |
| 2026-04-23 02:58 | 60.71763 | -148.08035 | 25525 ft | 419 kts | 283° |
| 2026-04-23 02:59 | 60.72630 | -148.13699 | 24919 ft | 416 kts | 283° |
| 2026-04-23 02:59 | 60.73476 | -148.19249 | 24317 ft | 412 kts | 283° |
| 2026-04-23 02:59 | 60.74323 | -148.24826 | 23678 ft | 410 kts | 283° |
| 2026-04-23 02:59 | 60.75155 | -148.30353 | 23168 ft | 405 kts | 282° |
| 2026-04-23 03:00 | 60.75971 | -148.35833 | 22707 ft | 401 kts | 282° |
| 2026-04-23 03:00 | 60.76780 | -148.41281 | 22233 ft | 401 kts | 282° |
| 2026-04-23 03:00 | 60.77592 | -148.46741 | 21754 ft | 401 kts | 282° |
| 2026-04-23 03:00 | 60.78402 | -148.52200 | 21293 ft | 400 kts | 282° |
| 2026-04-23 03:01 | 60.79205 | -148.57637 | 20816 ft | 398 kts | 282° |
| 2026-04-23 03:01 | 60.80002 | -148.63059 | 20337 ft | 396 kts | 282° |
| 2026-04-23 03:01 | 60.80791 | -148.68440 | 19877 ft | 394 kts | 282° |
| 2026-04-23 03:01 | 60.81576 | -148.73807 | 19398 ft | 392 kts | 281° |
| 2026-04-23 03:02 | 60.82358 | -148.79172 | 18849 ft | 392 kts | 281° |
| 2026-04-23 03:02 | 60.83133 | -148.84500 | 18356 ft | 387 kts | 281° |
| 2026-04-23 03:02 | 60.83893 | -148.89750 | 17875 ft | 383 kts | 281° |
| 2026-04-23 03:02 | 60.84648 | -148.94974 | 17426 ft | 380 kts | 281° |
| 2026-04-23 03:03 | 60.85394 | -149.00163 | 16970 ft | 377 kts | 280° |
| 2026-04-23 03:03 | 60.86131 | -149.05306 | 16533 ft | 374 kts | 280° |
| 2026-04-23 03:03 | 60.86871 | -149.10479 | 16077 ft | 371 kts | 280° |
| 2026-04-23 03:03 | 60.87591 | -149.15525 | 15643 ft | 367 kts | 280° |
| 2026-04-23 03:04 | 60.88306 | -149.20542 | 15200 ft | 364 kts | 281° |
| 2026-04-23 03:04 | 60.89279 | -149.25358 | 14784 ft | 366 kts | 288° |
| 2026-04-23 03:04 | 60.90362 | -149.30083 | 14336 ft | 366 kts | 288° |
| 2026-04-23 03:04 | 60.91445 | -149.34811 | 13894 ft | 365 kts | 289° |
| 2026-04-23 03:05 | 60.92645 | -149.39413 | 13428 ft | 364 kts | 292° |
| 2026-04-23 03:05 | 60.93932 | -149.43883 | 12988 ft | 363 kts | 294° |
| 2026-04-23 03:05 | 60.95249 | -149.48313 | 12556 ft | 362 kts | 294° |
| 2026-04-23 03:05 | 60.96123 | -149.51222 | 12267 ft | 361 kts | 294° |
| 2026-04-23 03:06 | 60.97445 | -149.55605 | 11841 ft | 360 kts | 294° |
| 2026-04-23 03:06 | 60.98767 | -149.59982 | 11419 ft | 358 kts | 295° |
| 2026-04-23 03:06 | 61.00069 | -149.64286 | 10975 ft | 350 kts | 294° |
| 2026-04-23 03:06 | 61.01347 | -149.68496 | 10587 ft | 342 kts | 295° |
| 2026-04-23 03:07 | 61.02596 | -149.72600 | 10159 ft | 335 kts | 294° |
| 2026-04-23 03:07 | 61.03813 | -149.76552 | 9648 ft | 315 kts | 294° |
| 2026-04-23 03:07 | 61.04966 | -149.80214 | 9315 ft | 295 kts | 294° |
| 2026-04-23 03:07 | 61.06074 | -149.83696 | 8990 ft | 286 kts | 294° |
| 2026-04-23 03:08 | 61.07162 | -149.87099 | 8683 ft | 280 kts | 294° |
| 2026-04-23 03:08 | 61.07866 | -149.90601 | 8398 ft | 260 kts | 272° |
| 2026-04-23 03:08 | 61.08117 | -149.94267 | 8123 ft | 257 kts | 266° |
| 2026-04-23 03:08 | 61.08254 | -149.97959 | 7721 ft | 258 kts | 265° |
| 2026-04-23 03:09 | 61.08362 | -150.01607 | 7310 ft | 254 kts | 264° |
| 2026-04-23 03:09 | 61.08461 | -150.05285 | 6999 ft | 256 kts | 264° |
| 2026-04-23 03:09 | 61.08551 | -150.08999 | 6722 ft | 261 kts | 264° |
| 2026-04-23 03:09 | 61.08635 | -150.12732 | 6424 ft | 259 kts | 264° |
| 2026-04-23 03:10 | 61.08716 | -150.16430 | 6121 ft | 255 kts | 264° |
| 2026-04-23 03:10 | 61.08795 | -150.20056 | 5809 ft | 250 kts | 264° |
| 2026-04-23 03:10 | 61.08873 | -150.23611 | 5508 ft | 245 kts | 264° |
| 2026-04-23 03:10 | 61.08952 | -150.27105 | 5226 ft | 241 kts | 264° |
| 2026-04-23 03:11 | 61.09030 | -150.30535 | 4943 ft | 237 kts | 264° |
| 2026-04-23 03:11 | 61.09108 | -150.33853 | 4819 ft | 225 kts | 264° |
| 2026-04-23 03:11 | 61.09186 | -150.37077 | 4687 ft | 227 kts | 264° |
| 2026-04-23 03:11 | 61.09254 | -150.40336 | 4535 ft | 227 kts | 264° |
| 2026-04-23 03:12 | 61.09384 | -150.43599 | 4392 ft | 235 kts | 280° |
| 2026-04-23 03:12 | 61.10238 | -150.46550 | 4260 ft | 248 kts | 314° |
| 2026-04-23 03:12 | 61.11715 | -150.48230 | 4146 ft | 238 kts | 346° |
| 2026-04-23 03:12 | 61.13318 | -150.48807 | 4068 ft | 232 kts | 354° |
| 2026-04-23 03:13 | 61.14891 | -150.48528 | 3992 ft | 224 kts | 25° |
| 2026-04-23 03:13 | 61.16256 | -150.47142 | 3992 ft | 219 kts | 43° |
| 2026-04-23 03:13 | 61.17187 | -150.44795 | 3987 ft | 198 kts | 78° |
| 2026-04-23 03:13 | 61.17355 | -150.42058 | 3774 ft | 190 kts | 96° |
| 2026-04-23 03:14 | 61.17369 | -150.39367 | 3581 ft | 186 kts | 97° |
| 2026-04-23 03:14 | 61.17380 | -150.36821 | 3579 ft | 171 kts | 97° |
| 2026-04-23 03:14 | 61.17398 | -150.34390 | 3598 ft | 166 kts | 97° |
| 2026-04-23 03:14 | 61.17414 | -150.32062 | 3500 ft | 158 kts | 97° |
| 2026-04-23 03:15 | 61.17404 | -150.29788 | 3496 ft | 147 kts | 100° |
| 2026-04-23 03:15 | 61.17348 | -150.27692 | 2963 ft | 148 kts | 102° |
| 2026-04-23 03:15 | 61.17225 | -150.25585 | 2445 ft | 146 kts | 105° |
| 2026-04-23 03:15 | 61.17030 | -150.23495 | 1977 ft | 148 kts | 106° |
| 2026-04-23 03:16 | 61.16813 | -150.21446 | 1750 ft | 145 kts | 104° |
| 2026-04-23 03:16 | 61.16714 | -150.19336 | 1589 ft | 152 kts | 96° |
| 2026-04-23 03:16 | 61.16804 | -150.14846 | 1086 ft | 154 kts | 93° |
| 2026-04-23 03:17 | 61.16777 | -150.12681 | 843 ft | 150 kts | 93° |
| 2026-04-23 03:17 | 61.16760 | -150.10527 | 692 ft | 148 kts | 91° |
| 2026-04-23 03:17 | 61.16766 | -150.08393 | 562 ft | 148 kts | 92° |
| 2026-04-23 03:17 | 61.16774 | -150.06266 | 395 ft | 146 kts | 92° |
| 2026-04-23 03:18 | 61.16791 | -150.04227 | 212 ft | 135 kts | 95° |
| 2026-04-23 03:18 | 61.16779 | -150.02462 | 145 ft | 101 kts | 91° |
| 2026-04-23 03:18 | 61.16784 | -150.01550 | 143 ft | 46 kts | 91° |
| 2026-04-23 03:18 | 61.16783 | -150.01004 | 141 ft | 24 kts | 90° |
| 2026-04-23 03:19 | 61.16821 | -150.00823 | 139 ft | 5 kts | 18° |
| 2026-04-23 03:19 | 61.16881 | -150.00815 | 140 ft | 15 kts | 1° |
| 2026-04-23 03:19 | 61.17034 | -150.00808 | 142 ft | 25 kts | 1° |
| 2026-04-23 03:19 | 61.17114 | -150.00727 | 143 ft | 9 kts | 64° |
| 2026-04-23 03:20 | 61.17125 | -150.00600 | 144 ft | 10 kts | 88° |
| 2026-04-23 03:20 | 61.17124 | -150.00436 | 143 ft | 13 kts | 91° |
| 2026-04-23 03:20 | 61.17122 | -150.00235 | 143 ft | 15 kts | 90° |
| 2026-04-23 03:20 | 61.17123 | -149.99995 | 140 ft | 19 kts | 89° |
| 2026-04-23 03:21 | 61.17119 | -149.99693 | 134 ft | 23 kts | 93° |
| 2026-04-23 03:21 | 61.17118 | -149.99340 | 124 ft | 26 kts | 88° |
| 2026-04-23 03:21 | 61.17124 | -149.98974 | 121 ft | 23 kts | 91° |
| 2026-04-23 03:21 | 61.17127 | -149.98765 | 122 ft | 8 kts | 71° |
| 2026-04-23 03:22 | 61.17155 | -149.98724 | 116 ft | 4 kts | 11° |
| 2026-04-23 03:22 | 61.17196 | -149.98742 | 115 ft | 7 kts | 332° |
| 2026-04-23 03:22 | 61.17238 | -149.98779 | 115 ft | 8 kts | 340° |
| 2026-04-23 03:22 | 61.17302 | -149.98828 | 113 ft | 12 kts | 340° |
| 2026-04-23 03:23 | 61.17392 | -149.98898 | 110 ft | 15 kts | 339° |
| 2026-04-23 03:23 | 61.17500 | -149.98980 | 108 ft | 17 kts | 340° |
| 2026-04-23 03:23 | 61.17597 | -149.99054 | 109 ft | 13 kts | 342° |
| 2026-04-23 03:23 | 61.17677 | -149.99035 | 106 ft | 12 kts | 26° |
| 2026-04-23 03:24 | 61.17720 | -149.98994 | 108 ft | 0 kts | 24° |
| 2026-04-23 03:24 | 61.17727 | -149.98988 | 108 ft | 2 kts | 24° |
| 2026-04-23 03:24 | 61.17739 | -149.98978 | 108 ft | 0 kts | 24° |
| 2026-04-23 03:25 | 61.17739 | -149.98977 | 108 ft | 1 kts | 24° |
| 2026-04-23 03:25 | 61.17745 | -149.98971 | 109 ft | 0 kts | 24° |